createdAt,value
2017-12-02T00:00:26.674Z,84.44
2017-12-02T00:02:52.532Z,84.03
2017-12-02T00:05:18.356Z,83.93
2017-12-02T00:07:44.190Z,83.90
2017-12-02T00:10:09.982Z,84.00
2017-12-02T00:12:35.778Z,84.32
2017-12-02T00:15:01.615Z,84.33
2017-12-02T00:17:27.443Z,84.48
2017-12-02T00:19:53.272Z,84.46
2017-12-02T00:22:19.120Z,84.34
2017-12-02T00:24:44.945Z,83.91
2017-12-02T00:27:10.772Z,83.43
2017-12-02T00:29:41.678Z,83.41
2017-12-02T00:32:07.477Z,83.43
2017-12-02T00:34:34.175Z,83.90
2017-12-02T00:37:00.013Z,83.67
2017-12-02T00:39:28.978Z,83.38
2017-12-02T00:41:54.837Z,82.90
2017-12-02T00:44:24.156Z,83.17
2017-12-02T00:46:49.988Z,83.06
2017-12-02T00:49:15.777Z,83.08
2017-12-02T00:51:41.647Z,82.58
2017-12-02T00:54:07.450Z,82.67
2017-12-02T00:56:36.559Z,82.30
2017-12-02T00:59:02.363Z,82.35
2017-12-02T01:01:29.911Z,82.61
2017-12-02T01:03:55.725Z,82.43
2017-12-02T01:08:52.261Z,82.48
2017-12-02T01:11:20.013Z,82.42
2017-12-02T01:13:45.864Z,82.44
2017-12-02T01:16:15.425Z,82.54
2017-12-02T01:18:41.280Z,82.80
2017-12-02T01:21:10.207Z,83.09
2017-12-02T01:23:36.036Z,83.48
2017-12-02T01:26:01.887Z,83.49
2017-12-02T01:28:27.693Z,83.52
2017-12-02T01:30:53.546Z,83.11
2017-12-02T01:33:21.140Z,84.25
2017-12-02T01:35:46.931Z,83.95
2017-12-02T01:38:16.751Z,83.60
2017-12-02T01:40:42.520Z,83.59
2017-12-02T01:43:11.864Z,83.44
2017-12-02T01:45:37.662Z,83.76
2017-12-02T01:48:05.242Z,83.93
2017-12-02T01:50:31.073Z,83.79
2017-12-02T01:53:00.816Z,83.71
2017-12-02T01:55:26.592Z,83.56
2017-12-02T01:57:54.444Z,83.19
2017-12-02T02:00:20.239Z,82.97
2017-12-02T02:02:46.093Z,83.52
2017-12-02T02:05:11.948Z,83.73
2017-12-02T02:07:38.514Z,82.94
2017-12-02T02:10:07.351Z,83.53
2017-12-02T02:12:33.107Z,83.95
2017-12-02T02:15:00.635Z,83.95
2017-12-02T02:17:26.387Z,83.79
2017-12-02T02:19:52.829Z,83.76
2017-12-02T02:22:18.611Z,83.92
2017-12-02T02:24:44.379Z,83.75
2017-12-02T02:27:13.508Z,83.88
2017-12-02T02:29:39.355Z,83.73
2017-12-02T02:32:07.017Z,83.58
2017-12-02T02:34:32.861Z,83.43
2017-12-02T02:37:01.900Z,83.65
2017-12-02T02:39:27.687Z,83.40
2017-12-02T02:41:57.058Z,83.93
2017-12-02T02:44:22.886Z,83.62
2017-12-02T02:46:51.194Z,83.45
2017-12-02T02:49:17.023Z,83.63
2017-12-02T02:51:46.072Z,83.71
2017-12-02T02:54:11.869Z,83.91
2017-12-02T02:56:40.608Z,83.79
2017-12-02T02:59:06.392Z,83.39
2017-12-02T03:01:35.343Z,84.18
2017-12-02T03:04:01.125Z,84.29
2017-12-02T03:06:29.764Z,83.99
2017-12-02T03:08:55.593Z,84.12
2017-12-02T03:13:52.167Z,83.73
2017-12-02T03:16:18.032Z,83.82
2017-12-02T03:18:43.867Z,84.57
2017-12-02T03:21:09.717Z,84.45
2017-12-02T03:23:37.116Z,84.32
2017-12-02T03:26:02.958Z,84.07
2017-12-02T03:28:31.298Z,83.45
2017-12-02T03:30:57.149Z,83.56
2017-12-02T03:33:26.821Z,83.69
2017-12-02T03:35:52.651Z,83.46
2017-12-02T03:38:22.428Z,83.14
2017-12-02T03:40:48.252Z,82.67
2017-12-02T03:43:15.758Z,82.71
2017-12-02T03:45:41.606Z,82.70
2017-12-02T03:48:11.176Z,82.93
2017-12-02T03:50:36.986Z,82.82
2017-12-02T03:53:02.762Z,82.50
2017-12-02T03:55:28.666Z,82.35
2017-12-02T03:57:54.482Z,82.30
2017-12-02T04:00:23.489Z,81.74
2017-12-02T04:02:49.398Z,81.53
2017-12-02T04:05:17.044Z,82.04
2017-12-02T04:07:42.928Z,81.85
2017-12-02T04:10:11.332Z,82.39
2017-12-02T04:12:37.189Z,82.74
2017-12-02T04:15:06.958Z,82.97
2017-12-02T04:17:32.820Z,83.04
2017-12-02T04:20:02.413Z,82.64
2017-12-02T04:22:28.241Z,82.53
2017-12-02T04:24:55.965Z,82.06
2017-12-02T04:27:21.783Z,82.57
2017-12-02T04:29:47.642Z,83.28
2017-12-02T04:32:13.404Z,83.18
2017-12-02T04:34:39.252Z,83.55
2017-12-02T04:37:08.322Z,83.44
2017-12-02T04:39:34.127Z,83.47
2017-12-02T04:42:01.934Z,83.15
2017-12-02T04:44:27.787Z,82.56
2017-12-02T04:46:57.973Z,81.82
2017-12-02T04:49:23.836Z,82.64
2017-12-02T04:51:51.427Z,82.58
2017-12-02T04:54:17.277Z,82.21
2017-12-02T04:56:45.907Z,81.97
2017-12-02T04:59:11.713Z,82.14
2017-12-02T05:01:38.288Z,82.57
2017-12-02T05:04:04.106Z,83.09
2017-12-02T05:06:29.976Z,83.11
2017-12-02T05:08:57.732Z,82.79
2017-12-02T05:11:23.572Z,82.56
2017-12-02T05:13:52.882Z,82.29
2017-12-02T05:16:18.705Z,83.52
2017-12-02T05:18:48.173Z,84.24
2017-12-02T05:21:13.973Z,84.68
2017-12-02T05:23:43.234Z,84.50
2017-12-02T05:26:09.008Z,84.04
2017-12-02T05:28:37.662Z,83.73
2017-12-02T05:31:03.434Z,83.20
2017-12-02T05:33:32.734Z,83.32
2017-12-02T05:35:58.521Z,83.08
2017-12-02T05:38:26.101Z,83.44
2017-12-02T05:40:51.902Z,83.27
2017-12-02T05:43:17.748Z,83.30
2017-12-02T05:45:43.614Z,84.01
2017-12-02T05:48:09.456Z,84.74
2017-12-02T05:50:39.278Z,84.99
2017-12-02T05:53:05.091Z,84.59
2017-12-02T05:55:32.510Z,84.07
2017-12-02T05:57:58.400Z,84.36
2017-12-02T06:00:27.061Z,84.29
2017-12-02T06:02:52.912Z,84.51
2017-12-02T06:07:49.413Z,85.61
2017-12-02T06:10:16.795Z,85.90
2017-12-02T06:12:42.574Z,85.82
2017-12-02T06:15:11.616Z,85.98
2017-12-02T06:17:37.430Z,85.78
2017-12-02T06:20:03.240Z,85.48
2017-12-02T06:22:29.056Z,85.54
2017-12-02T06:24:54.929Z,85.45
2017-12-02T06:27:23.895Z,85.27
2017-12-02T06:29:49.756Z,85.05
2017-12-02T06:32:17.559Z,84.65
2017-12-02T06:34:43.383Z,84.46
2017-12-02T06:39:40.016Z,84.59
2017-12-02T06:42:07.424Z,84.84
2017-12-02T06:44:33.269Z,84.85
2017-12-02T06:47:02.591Z,85.64
2017-12-02T06:49:28.427Z,85.80
2017-12-02T06:51:58.226Z,85.60
2017-12-02T06:54:24.086Z,85.03
2017-12-02T06:56:49.913Z,84.86
2017-12-02T06:59:15.754Z,85.11
2017-12-02T07:01:41.658Z,84.99
2017-12-02T07:04:08.604Z,84.87
2017-12-02T07:06:34.485Z,84.87
2017-12-02T07:09:03.883Z,84.59
2017-12-02T07:11:29.729Z,85.64
2017-12-02T07:13:58.604Z,85.41
2017-12-02T07:16:24.493Z,87.41
2017-12-02T07:18:54.164Z,88.69
2017-12-02T07:21:20.037Z,90.50
2017-12-02T07:23:47.421Z,91.31
2017-12-02T07:26:13.250Z,91.73
2017-12-02T07:28:42.682Z,91.40
2017-12-02T07:31:08.532Z,89.83
2017-12-02T07:33:34.381Z,89.06
2017-12-02T07:36:00.196Z,87.95
2017-12-02T07:38:25.999Z,87.53
2017-12-02T07:40:53.629Z,86.45
2017-12-02T07:43:19.451Z,86.47
2017-12-02T07:45:49.048Z,86.09
2017-12-02T07:48:14.889Z,85.95
2017-12-02T07:50:43.088Z,85.43
2017-12-02T07:53:08.926Z,85.20
2017-12-02T07:55:37.693Z,85.06
2017-12-02T07:58:03.536Z,85.10
2017-12-02T08:03:00.220Z,86.43
2017-12-02T08:05:27.898Z,86.39
2017-12-02T08:07:53.748Z,85.94
2017-12-02T08:10:19.566Z,85.79
2017-12-02T08:12:45.435Z,85.76
2017-12-02T08:15:11.295Z,85.43
2017-12-02T08:17:38.850Z,85.25
2017-12-02T08:20:04.696Z,85.47
2017-12-02T08:22:33.383Z,85.58
2017-12-02T08:24:59.244Z,86.80
2017-12-02T08:29:55.948Z,87.91
2017-12-02T08:32:23.468Z,88.79
2017-12-02T08:34:49.254Z,89.52
2017-12-02T08:37:17.841Z,88.29
2017-12-02T08:39:43.722Z,89.31
2017-12-02T08:42:12.786Z,89.62
2017-12-02T08:44:38.663Z,88.21
2017-12-02T08:47:04.501Z,87.07
2017-12-02T08:49:30.294Z,86.73
2017-12-02T08:51:56.209Z,87.09
2017-12-02T08:54:25.342Z,86.19
2017-12-02T08:56:51.214Z,85.41
2017-12-02T08:59:20.738Z,84.35
2017-12-02T09:01:46.629Z,83.64
2017-12-02T09:04:14.001Z,83.97
2017-12-02T09:06:39.864Z,83.49
2017-12-02T09:09:09.692Z,83.81
2017-12-02T09:11:35.534Z,84.65
2017-12-02T09:14:03.292Z,83.65
2017-12-02T09:16:29.148Z,82.83
2017-12-02T09:18:58.432Z,81.97
2017-12-02T09:21:24.297Z,81.99
2017-12-02T09:23:50.160Z,81.64
2017-12-02T09:26:15.984Z,81.57
2017-12-02T09:28:41.836Z,81.89
2017-12-02T09:31:10.940Z,81.57
2017-12-02T09:33:36.769Z,81.45
2017-12-02T09:36:05.536Z,81.00
2017-12-02T09:38:31.349Z,80.35
2017-12-02T09:40:59.044Z,79.90
2017-12-02T09:43:24.950Z,80.53
2017-12-02T09:45:54.135Z,80.93
2017-12-02T09:48:19.950Z,80.34
2017-12-02T09:50:48.883Z,80.59
2017-12-02T09:53:14.702Z,80.65
2017-12-02T09:55:43.200Z,79.85
2017-12-02T09:58:09.045Z,79.94
2017-12-02T10:00:34.878Z,79.43
2017-12-02T10:03:00.703Z,78.63
2017-12-02T10:05:26.492Z,78.73
2017-12-02T10:07:55.575Z,78.21
2017-12-02T10:10:21.372Z,77.89
2017-12-02T10:12:50.864Z,77.53
2017-12-02T10:15:16.695Z,78.70
2017-12-02T10:17:44.471Z,79.97
2017-12-02T10:20:10.369Z,80.46
2017-12-02T10:22:39.491Z,82.37
2017-12-02T10:25:05.376Z,83.40
2017-12-02T10:27:34.223Z,80.88
2017-12-02T10:30:00.089Z,79.80
2017-12-02T10:32:29.365Z,80.62
2017-12-02T10:34:55.244Z,79.95
2017-12-02T10:37:21.099Z,79.69
2017-12-02T10:39:46.986Z,79.72
2017-12-02T10:42:12.829Z,79.42
2017-12-02T10:44:41.889Z,78.49
2017-12-02T10:47:07.743Z,78.94
2017-12-02T10:49:35.475Z,79.50
2017-12-02T10:52:01.317Z,78.85
2017-12-02T10:54:29.740Z,78.47
2017-12-02T10:56:55.544Z,77.43
2017-12-02T10:59:24.976Z,78.81
2017-12-02T11:01:50.836Z,79.20
2017-12-02T11:04:19.692Z,79.24
2017-12-02T11:06:45.557Z,80.14
2017-12-02T11:09:13.990Z,79.52
2017-12-02T11:11:39.762Z,79.92
2017-12-02T11:14:05.592Z,78.99
2017-12-02T11:16:31.408Z,78.42
2017-12-02T11:18:57.231Z,77.86
2017-12-02T11:21:26.240Z,78.05
2017-12-02T11:23:52.012Z,78.30
2017-12-02T11:26:20.302Z,78.06
2017-12-02T11:28:46.165Z,77.66
2017-12-02T11:31:15.800Z,77.77
2017-12-02T11:33:41.576Z,77.43
2017-12-02T11:36:11.066Z,77.07
2017-12-02T11:38:36.874Z,77.54
2017-12-02T11:41:04.525Z,77.23
2017-12-02T11:43:30.334Z,76.95
2017-12-02T11:45:59.522Z,76.19
2017-12-02T11:48:25.368Z,75.92
2017-12-02T11:50:51.188Z,76.13
2017-12-02T11:53:17.035Z,75.84
2017-12-02T11:55:42.998Z,77.46
2017-12-02T11:58:10.682Z,77.21
2017-12-02T12:00:36.545Z,76.97
2017-12-02T12:03:05.283Z,77.91
2017-12-02T12:05:31.091Z,76.96
2017-12-02T12:10:27.735Z,77.12
2017-12-02T12:12:55.197Z,77.42
2017-12-02T12:15:21.030Z,76.69
2017-12-02T12:17:51.112Z,76.15
2017-12-02T12:20:16.886Z,77.21
2017-12-02T12:22:44.627Z,76.50
2017-12-02T12:25:10.467Z,77.17
2017-12-02T12:27:36.270Z,78.23
2017-12-02T12:30:02.088Z,77.55
2017-12-02T12:32:27.892Z,77.56
2017-12-02T12:34:56.006Z,77.49
2017-12-02T12:37:21.861Z,77.30
2017-12-02T12:42:18.647Z,77.52
2017-12-02T12:44:45.736Z,77.53
2017-12-02T12:47:11.542Z,78.05
2017-12-02T12:49:41.830Z,78.52
2017-12-02T12:52:07.657Z,78.02
2017-12-02T12:54:35.366Z,78.51
2017-12-02T12:57:01.164Z,78.51
2017-12-02T12:59:31.035Z,77.60
2017-12-02T13:01:56.923Z,76.42
2017-12-02T13:04:22.954Z,75.27
2017-12-02T13:06:48.813Z,74.72
2017-12-02T13:09:14.594Z,75.23
2017-12-02T13:11:42.151Z,75.35
2017-12-02T13:14:07.972Z,76.13
2017-12-02T13:16:37.609Z,76.16
2017-12-02T13:19:03.392Z,75.47
2017-12-02T13:21:31.146Z,75.29
2017-12-02T13:23:56.990Z,75.34
2017-12-02T13:26:29.688Z,75.51
2017-12-02T13:28:55.549Z,75.47
2017-12-02T13:31:21.348Z,74.77
2017-12-02T13:33:47.166Z,73.62
2017-12-02T13:36:16.939Z,72.13
2017-12-02T13:38:42.758Z,72.31
2017-12-02T13:41:08.614Z,72.76
2017-12-02T13:43:34.422Z,73.21
2017-12-02T13:46:00.199Z,73.19
2017-12-02T13:48:27.145Z,74.11
2017-12-02T13:50:52.991Z,74.23
2017-12-02T13:53:21.883Z,75.10
2017-12-02T13:55:47.708Z,75.19
2017-12-02T13:58:17.008Z,74.25
2017-12-02T14:00:42.830Z,73.04
2017-12-02T14:03:12.326Z,72.97
2017-12-02T14:05:38.188Z,72.46
2017-12-02T14:08:07.303Z,73.41
2017-12-02T14:10:33.152Z,74.05
2017-12-02T14:13:00.488Z,74.88
2017-12-02T14:15:26.336Z,74.45
2017-12-02T14:17:52.114Z,73.38
2017-12-02T14:20:17.931Z,75.08
2017-12-02T14:22:43.748Z,75.32
2017-12-02T14:25:13.574Z,75.96
2017-12-02T14:27:39.366Z,75.30
2017-12-02T14:30:06.787Z,74.58
2017-12-02T14:32:32.586Z,74.83
2017-12-02T14:35:02.119Z,75.36
2017-12-02T14:37:27.956Z,75.15
2017-12-02T14:39:57.114Z,71.06
2017-12-02T14:42:22.908Z,74.12
2017-12-02T14:44:52.544Z,76.45
2017-12-02T14:47:18.372Z,76.84
2017-12-02T14:49:45.913Z,77.14
2017-12-02T14:52:11.714Z,77.73
2017-12-02T14:54:37.532Z,78.53
2017-12-02T14:57:03.357Z,78.48
2017-12-02T14:59:29.144Z,78.90
2017-12-02T15:01:58.776Z,78.97
2017-12-02T15:07:09.014Z,79.30
2017-12-02T15:09:34.805Z,79.26
2017-12-02T15:12:00.722Z,79.25
2017-12-02T15:14:26.450Z,79.32
2017-12-02T15:16:52.250Z,79.09
2017-12-02T15:19:18.031Z,79.95
2017-12-02T15:21:43.833Z,79.92
2017-12-02T15:24:09.705Z,79.96
2017-12-02T15:26:35.516Z,79.77
2017-12-02T15:29:01.336Z,79.50
2017-12-02T15:31:27.160Z,80.00
2017-12-02T15:33:52.980Z,79.78
2017-12-02T15:36:18.806Z,79.85
2017-12-02T15:38:44.623Z,79.67
2017-12-02T15:41:10.458Z,79.62
2017-12-02T15:43:37.694Z,79.85
2017-12-02T15:46:03.523Z,80.05
2017-12-02T15:48:32.168Z,80.65
2017-12-02T15:50:58.006Z,80.60
2017-12-02T15:53:27.372Z,79.88
2017-12-02T15:55:53.250Z,81.46
2017-12-02T15:58:22.635Z,81.44
2017-12-02T16:00:48.452Z,81.68
2017-12-02T16:03:16.366Z,81.63
2017-12-02T16:05:42.191Z,81.40
2017-12-02T16:08:08.004Z,81.27
2017-12-02T16:10:33.826Z,81.22
2017-12-02T16:12:59.705Z,80.88
2017-12-02T16:15:28.074Z,80.80
2017-12-02T16:17:53.936Z,80.79
2017-12-02T16:20:22.361Z,80.66
2017-12-02T16:22:48.176Z,80.67
2017-12-02T16:27:44.932Z,81.27
2017-12-02T16:30:12.534Z,81.47
2017-12-02T16:32:38.344Z,81.53
2017-12-02T16:35:07.352Z,81.89
2017-12-02T16:37:33.125Z,81.78
2017-12-02T16:40:02.386Z,81.52
2017-12-02T16:42:28.191Z,81.33
2017-12-02T16:44:54.042Z,81.57
2017-12-02T16:47:19.885Z,81.43
2017-12-02T16:49:45.739Z,81.28
2017-12-02T16:52:13.262Z,81.42
2017-12-02T16:54:39.073Z,81.39
2017-12-02T16:57:08.151Z,81.20
2017-12-02T16:59:33.997Z,81.25
2017-12-02T17:02:02.892Z,81.00
2017-12-02T17:04:28.747Z,80.68
2017-12-02T17:06:57.772Z,80.72
2017-12-02T17:09:23.659Z,80.89
2017-12-02T17:12:23.800Z,80.75
2017-12-02T17:14:49.634Z,80.77
2017-12-02T17:17:15.444Z,80.81
2017-12-02T17:19:41.262Z,80.85
2017-12-02T17:22:07.032Z,81.39
2017-12-02T17:24:32.882Z,81.23
2017-12-02T17:26:58.712Z,81.33
2017-12-02T17:29:24.559Z,81.20
2017-12-02T17:31:50.454Z,81.03
2017-12-02T17:34:16.279Z,81.04
2017-12-02T17:36:42.076Z,81.00
2017-12-02T17:39:08.492Z,80.90
2017-12-02T17:41:34.333Z,80.39
2017-12-02T17:44:03.639Z,80.34
2017-12-02T17:46:29.461Z,80.43
2017-12-02T17:48:58.741Z,80.79
2017-12-02T17:51:24.517Z,80.55
2017-12-02T17:53:53.602Z,81.06
2017-12-02T17:56:19.445Z,80.81
2017-12-02T17:58:47.459Z,80.74
2017-12-02T18:01:13.287Z,80.51
2017-12-02T18:03:39.187Z,80.73
2017-12-02T18:06:04.993Z,81.10
2017-12-02T18:08:30.803Z,81.04
2017-12-02T18:10:59.651Z,80.45
2017-12-02T18:13:25.464Z,81.20
2017-12-02T18:15:54.333Z,80.90
2017-12-02T18:18:20.162Z,80.95
2017-12-02T18:20:49.003Z,81.10
2017-12-02T18:23:14.801Z,81.06
2017-12-02T18:25:43.731Z,80.75
2017-12-02T18:28:09.632Z,80.77
2017-12-02T18:30:38.436Z,80.62
2017-12-02T18:33:04.265Z,80.43
2017-12-02T18:35:33.096Z,80.70
2017-12-02T18:37:58.931Z,81.30
2017-12-02T18:40:24.739Z,80.88
2017-12-02T18:42:50.546Z,80.91
2017-12-02T18:45:16.380Z,80.80
2017-12-02T18:47:45.946Z,80.24
2017-12-02T18:50:11.819Z,80.26
2017-12-02T18:52:39.605Z,80.89
2017-12-02T18:58:18.204Z,80.91
2017-12-02T19:00:44.022Z,80.44
2017-12-02T19:03:09.869Z,80.05
2017-12-02T19:05:35.742Z,80.34
2017-12-02T19:08:01.528Z,80.57
2017-12-02T19:10:27.415Z,80.18
2017-12-02T19:12:53.238Z,80.46
2017-12-02T19:15:19.046Z,79.95
2017-12-02T19:17:44.941Z,79.90
2017-12-02T19:20:10.761Z,80.30
2017-12-02T19:22:36.664Z,80.46
2017-12-02T19:25:02.535Z,80.36
2017-12-02T19:27:28.401Z,80.35
2017-12-02T19:29:54.256Z,80.24
2017-12-02T19:32:20.059Z,80.15
2017-12-02T19:34:45.935Z,80.13
2017-12-02T19:37:11.760Z,80.02
2017-12-02T19:39:37.622Z,80.36
2017-12-02T19:42:04.195Z,80.25
2017-12-02T19:44:30.033Z,80.05
2017-12-02T19:46:55.892Z,80.43
2017-12-02T19:49:24.956Z,80.05
2017-12-02T20:09:11.714Z,80.83
2017-12-02T20:23:27.852Z,81.47
2017-12-02T20:43:21.000Z,80.26
2017-12-02T20:45:46.846Z,80.74
2017-12-02T20:48:12.657Z,80.16
2017-12-02T20:50:38.479Z,80.81
2017-12-02T20:53:04.334Z,80.62
2017-12-02T20:55:30.214Z,80.25
2017-12-02T20:57:56.058Z,80.34
2017-12-02T21:00:21.909Z,80.01
2017-12-02T21:02:47.681Z,80.15
2017-12-02T21:05:13.614Z,80.16
2017-12-02T21:07:39.480Z,79.88
2017-12-02T21:10:05.318Z,80.00
2017-12-02T21:12:31.119Z,80.22
2017-12-02T21:14:56.971Z,80.30
2017-12-02T21:17:22.846Z,80.22
2017-12-02T21:19:48.712Z,80.10
2017-12-02T21:22:14.475Z,79.99
2017-12-02T21:24:40.330Z,79.67
2017-12-02T21:27:06.203Z,79.46
2017-12-02T21:29:32.061Z,80.03
2017-12-02T21:31:57.891Z,79.89
2017-12-02T21:34:24.866Z,80.16
2017-12-02T21:36:50.782Z,79.84
2017-12-02T21:39:20.643Z,79.53
2017-12-02T21:41:46.506Z,79.08
2017-12-02T21:44:12.417Z,79.25
2017-12-02T21:46:38.298Z,79.73
2017-12-02T21:49:04.200Z,79.56
2017-12-02T21:51:31.347Z,79.32
2017-12-02T21:56:49.808Z,79.64
2017-12-02T21:59:15.628Z,79.25
2017-12-02T22:01:41.479Z,79.11
2017-12-02T22:04:07.338Z,79.13
2017-12-02T22:06:33.185Z,79.19
2017-12-02T22:08:59.030Z,79.20
2017-12-02T22:11:24.967Z,79.10
2017-12-02T22:13:50.837Z,79.09
2017-12-02T22:16:16.665Z,78.73
2017-12-02T22:18:42.525Z,78.37
2017-12-02T22:21:08.396Z,77.12
2017-12-02T22:23:34.203Z,76.81
2017-12-02T22:26:00.079Z,77.67
2017-12-02T22:28:25.937Z,78.19
2017-12-02T22:30:51.719Z,78.44
2017-12-02T22:33:17.533Z,78.92
2017-12-02T22:35:43.384Z,78.78
2017-12-02T22:38:09.324Z,78.34
2017-12-02T22:40:35.193Z,78.14
2017-12-02T22:43:01.095Z,78.23
2017-12-02T22:45:26.952Z,78.71
2017-12-02T22:47:54.972Z,78.88
2017-12-02T22:50:20.783Z,78.96
2017-12-02T22:55:17.526Z,78.93
2017-12-02T23:00:38.889Z,78.54
2017-12-02T23:03:04.710Z,78.47
2017-12-02T23:05:30.555Z,78.71
2017-12-02T23:07:56.380Z,78.73
2017-12-02T23:10:22.220Z,78.81
2017-12-02T23:12:48.074Z,78.75
2017-12-02T23:15:13.984Z,78.44
2017-12-02T23:17:39.828Z,78.23
2017-12-02T23:20:05.704Z,78.63
2017-12-02T23:22:31.538Z,78.58
2017-12-02T23:24:57.356Z,78.54
2017-12-02T23:27:23.207Z,78.46
2017-12-02T23:29:49.113Z,78.44
2017-12-02T23:32:14.963Z,78.56
2017-12-02T23:34:40.819Z,78.43
2017-12-02T23:37:06.613Z,78.52
2017-12-02T23:39:32.468Z,78.46
2017-12-02T23:41:58.294Z,78.87
2017-12-02T23:44:24.170Z,78.80
2017-12-02T23:46:49.957Z,78.12
2017-12-02T23:49:15.807Z,78.78
2017-12-02T23:51:41.613Z,78.46
2017-12-02T23:54:07.509Z,78.68
2017-12-02T23:56:33.409Z,78.58
2017-12-02T23:58:59.278Z,78.59
